Time;durP1;ratioP1;P1;durP2;ratioP2;P2;SDS_P1;SDS_P2;PMS_P1;PMS_P2;Temp;Humidity;BMP_temperature;BMP_pressure;BME280_temperature;BME280_humidity;BME280_pressure;Samples;Min_cycle;Max_cycle;Signal;HPM_P1;HPM_P2
2022/01/13 00:00:06;;;;;;;45.90;20.00;;;;;-7.70;99179.00;;;;111781;1241;41142;-66
2022/01/13 00:02:56;;;;;;;44.30;20.20;;;;;-7.70;99168.00;;;;111785;1241;41584;-78
2022/01/13 00:05:29;;;;;;;;;;;;;-7.78;99176.40;;;;111832;1241;42810;-75
2022/01/13 00:07:59;;;;;;;38.70;16.90;;;;;-7.80;99183.40;;;;111758;1241;41163;-62
2022/01/13 00:10:28;;;;;;;39.60;17.70;;;;;-7.80;99190.80;;;;111873;1241;41237;-67
2022/01/13 00:13:03;;;;;;;38.00;17.50;;;;;-7.80;99188.40;;;;111841;1241;41130;-72
2022/01/13 00:15:50;;;;;;;42.90;17.20;;;;;-7.80;99179.60;;;;111754;1242;41146;-71
2022/01/13 00:18:36;;;;;;;36.50;17.90;;;;;-7.86;99194.80;;;;111841;1241;41143;-70
2022/01/13 00:23:53;;;;;;;44.90;21.30;;;;;-7.84;99195.80;;;;111845;1241;41595;-67
2022/01/13 00:26:25;;;;;;;46.40;21.60;;;;;-7.84;99196.40;;;;111861;1241;41250;-63
2022/01/13 00:28:56;;;;;;;48.70;23.40;;;;;-7.80;99193.60;;;;111902;1241;41318;-66
2022/01/13 00:31:29;;;;;;;53.10;23.70;;;;;-7.80;99197.20;;;;111891;1241;41130;-67
2022/01/13 00:34:00;;;;;;;54.40;25.50;;;;;-7.80;99198.00;;;;111885;1241;41140;-72
2022/01/13 00:36:35;;;;;;;55.40;25.00;;;;;-7.80;99199.40;;;;111794;1241;41138;-72
2022/01/13 00:39:07;;;;;;;54.70;23.90;;;;;-7.80;99193.20;;;;111887;1241;41155;-74
2022/01/13 00:41:38;;;;;;;49.20;22.70;;;;;-7.80;99193.20;;;;111895;1241;41245;-62
2022/01/13 00:44:08;;;;;;;45.70;21.90;;;;;-7.84;99201.00;;;;111881;1241;42316;-65
2022/01/13 00:46:43;;;;;;;48.50;21.50;;;;;-7.90;99202.00;;;;111946;1240;40903;-64
2022/01/13 00:49:14;;;;;;;46.70;22.60;;;;;-7.90;99206.00;;;;111825;1241;41659;-64
2022/01/13 00:51:45;;;;;;;47.80;21.70;;;;;-7.90;99198.40;;;;111756;1241;42378;-64
2022/01/13 00:54:15;;;;;;;50.90;23.50;;;;;-7.90;99207.40;;;;111896;1241;41144;-63
2022/01/13 00:56:44;;;;;;;48.50;23.70;;;;;-7.94;99207.60;;;;111900;1241;41189;-63
2022/01/13 00:59:15;;;;;;;46.20;22.20;;;;;-8.00;99204.60;;;;111590;1244;41935;-66
2022/01/13 01:01:50;;;;;;;55.80;25.30;;;;;-8.00;99204.60;;;;111724;1242;41845;-76
2022/01/13 01:04:20;;;;;;;54.20;23.80;;;;;-8.00;99197.20;;;;111793;1241;41712;-77
2022/01/13 01:06:50;;;;;;;59.20;26.00;;;;;-8.00;99191.20;;;;111666;1241;41243;-71
2022/01/13 01:09:34;;;;;;;57.20;25.00;;;;;-8.00;99186.60;;;;111844;1241;41165;-70
2022/01/13 01:12:04;;;;;;;47.00;22.30;;;;;-8.00;99180.80;;;;111843;1241;41619;-68
2022/01/13 01:14:36;;;;;;;58.90;28.10;;;;;-8.00;99173.20;;;;111784;1241;42047;-63
2022/01/13 01:17:06;;;;;;;60.10;26.80;;;;;-8.00;99177.80;;;;111833;1241;41352;-69
2022/01/13 01:19:37;;;;;;;57.60;26.70;;;;;-8.10;99187.60;;;;111818;1241;41143;-62
2022/01/13 01:27:35;;;;;;;54.60;24.60;;;;;-8.20;99198.60;;;;111832;1241;41213;-67
2022/01/13 01:30:12;;;;;;;46.40;21.90;;;;;-8.20;99195.40;;;;111843;1241;41146;-75
2022/01/13 01:32:44;;;;;;;41.40;19.80;;;;;-8.20;99195.60;;;;111849;1241;41127;-72
2022/01/13 01:35:15;;;;;;;43.80;19.50;;;;;-8.22;99195.20;;;;111862;1239;41376;-69
2022/01/13 01:37:46;;;;;;;45.00;18.20;;;;;-8.30;99200.00;;;;111506;1244;41148;-74
2022/01/13 01:40:16;;;;;;;37.50;17.60;;;;;-8.30;99197.00;;;;111795;1241;42127;-69
2022/01/13 01:42:47;;;;;;;38.40;17.10;;;;;-8.30;99203.60;;;;111838;1240;41143;-65
2022/01/13 01:45:17;;;;;;;37.40;17.40;;;;;-8.32;99208.20;;;;111610;1241;42280;-73
2022/01/13 01:47:50;;;;;;;;;;;;;-8.30;99200.20;;;;111871;1241;41729;-72
2022/01/13 01:50:22;;;;;;;37.90;17.10;;;;;-8.40;99198.20;;;;111840;1241;41504;-73
2022/01/13 01:52:53;;;;;;;39.30;17.40;;;;;-8.40;99197.60;;;;111805;1241;41619;-69
2022/01/13 01:55:22;;;;;;;35.60;16.70;;;;;-8.40;99202.40;;;;111846;1241;41131;-73
2022/01/13 01:57:58;;;;;;;38.40;17.00;;;;;-8.46;99204.00;;;;111832;1241;41717;-75
2022/01/13 02:00:27;;;;;;;45.80;19.40;;;;;-8.50;99212.00;;;;111520;1242;42188;-66
2022/01/13 02:02:59;;;;;;;43.50;19.30;;;;;-8.50;99215.80;;;;111758;1241;41163;-71
2022/01/13 02:05:29;;;;;;;36.50;17.30;;;;;-8.60;99220.80;;;;111357;1244;41659;-73
2022/01/13 02:08:00;;;;;;;37.10;16.70;;;;;-8.60;99219.80;;;;111672;1241;42430;-68
2022/01/13 02:10:30;;;;;;;;;;;;;-8.60;99213.40;;;;111725;1241;41144;-72
2022/01/13 02:13:06;;;;;;;39.80;16.20;;;;;-8.70;99218.80;;;;111800;1241;41146;-71
2022/01/13 02:16:37;;;;;;;33.40;15.50;;;;;-8.70;99225.80;;;;111794;1242;41488;-75
2022/01/13 02:18:30;;;;;;;38.30;16.30;;;;;-8.68;99228.60;;;;111625;1242;41481;-75
2022/01/13 02:21:01;;;;;;;37.10;17.40;;;;;-8.66;99236.40;;;;111728;1241;42567;-74
2022/01/13 02:23:36;;;;;;;37.10;15.90;;;;;-8.62;99237.20;;;;111728;1241;41150;-72
2022/01/13 02:26:08;;;;;;;35.10;15.90;;;;;-8.60;99231.60;;;;111775;1241;41143;-68
2022/01/13 02:28:38;;;;;;;33.70;15.00;;;;;-8.60;99231.60;;;;111829;1241;41168;-71
2022/01/13 02:31:08;;;;;;;33.20;15.20;;;;;-8.60;99228.80;;;;111686;1241;42638;-69
2022/01/13 02:33:40;;;;;;;32.40;14.90;;;;;-8.60;99227.80;;;;111824;1241;42865;-69
2022/01/13 02:36:10;;;;;;;36.80;16.30;;;;;-8.60;99229.20;;;;111569;1242;41233;-68
2022/01/13 02:38:41;;;;;;;36.90;15.90;;;;;-8.60;99232.80;;;;111654;1243;41141;-73
2022/01/13 02:41:11;;;;;;;32.00;14.80;;;;;-8.60;99238.60;;;;111847;1241;41124;-73
2022/01/13 02:43:44;;;;;;;46.10;19.40;;;;;-8.60;99240.20;;;;111754;1241;41827;-71
2022/01/13 02:49:00;;;;;;;66.30;29.60;;;;;-8.68;99248.00;;;;111801;1241;41139;-66
2022/01/13 02:51:30;;;;;;;61.50;28.30;;;;;-8.70;99243.20;;;;111814;1241;42405;-73
2022/01/13 02:54:00;;;;;;;57.30;26.20;;;;;-8.70;99250.20;;;;111515;1243;41247;-72
2022/01/13 02:56:30;;;;;;;54.90;24.80;;;;;-8.78;99252.40;;;;111538;1244;41152;-64
2022/01/13 02:59:00;;;;;;;;;;;;;-8.80;99257.40;;;;111759;1241;41162;-73
2022/01/13 03:01:31;;;;;;;52.00;21.40;;;;;-8.80;99250.20;;;;111555;1242;41172;-69
2022/01/13 03:04:06;;;;;;;46.40;20.70;;;;;-8.86;99255.60;;;;111462;1244;41710;-70
2022/01/13 03:06:40;;;;;;;48.40;21.50;;;;;-8.90;99254.20;;;;111810;1241;42395;-70
2022/01/13 03:09:12;;;;;;;57.20;24.40;;;;;-8.90;99250.00;;;;111727;1241;41628;-76
2022/01/13 03:11:44;;;;;;;49.10;22.50;;;;;-8.90;99250.60;;;;111775;1241;41143;-71
2022/01/13 03:14:14;;;;;;;52.70;23.30;;;;;-8.90;99245.40;;;;111558;1244;41137;-71
2022/01/13 03:16:45;;;;;;;52.00;22.50;;;;;-8.90;99244.20;;;;111537;1241;41120;-62
2022/01/13 03:19:15;;;;;;;;;;;;;-8.90;99245.00;;;;111787;1243;42109;-64
2022/01/13 03:21:46;;;;;;;;;;;;;-8.96;99247.60;;;;111545;1243;41150;-71
2022/01/13 03:24:17;;;;;;;;;;;;;-9.00;99254.20;;;;111827;1242;41147;-73
2022/01/13 03:26:49;;;;;;;43.80;19.30;;;;;-9.00;99254.40;;;;111289;1244;41256;-74
2022/01/13 03:29:23;;;;;;;46.50;19.90;;;;;-9.00;99250.80;;;;111294;1243;41866;-69
2022/01/13 03:31:54;;;;;;;42.80;19.70;;;;;-9.00;99240.20;;;;111463;1244;41737;-73
2022/01/13 03:34:26;;;;;;;38.80;18.40;;;;;-9.04;99243.20;;;;111769;1241;41854;-72
2022/01/13 03:36:56;;;;;;;44.40;20.20;;;;;-9.10;99232.60;;;;111441;1243;41134;-69
2022/01/13 03:39:28;;;;;;;39.40;18.40;;;;;-9.10;99245.00;;;;111643;1242;41142;-71
2022/01/13 03:42:02;;;;;;;40.10;18.30;;;;;-9.10;99238.60;;;;111696;1241;41597;-72
2022/01/13 03:44:32;;;;;;;43.10;20.00;;;;;-9.10;99240.20;;;;111564;1242;41145;-73
2022/01/13 03:47:04;;;;;;;46.60;20.90;;;;;-9.10;99236.00;;;;111690;1241;41154;-67
2022/01/13 03:49:34;;;;;;;50.10;20.60;;;;;-9.12;99236.40;;;;111762;1241;41250;-75
2022/01/13 03:52:24;;;;;;;49.40;20.30;;;;;-9.10;99239.40;;;;111708;1241;41262;-75
2022/01/13 03:55:38;;;;;;;51.30;22.40;;;;;-9.14;99238.80;;;;111739;1241;42859;-76
2022/01/13 03:58:42;;;;;;;50.10;22.80;;;;;-9.20;99239.20;;;;110831;1250;41539;-70
2022/01/13 04:01:34;;;;;;;47.10;22.00;;;;;-9.22;99244.60;;;;110771;1249;41709;-73
2022/01/13 04:04:05;;;;;;;52.10;22.20;;;;;-9.30;99245.80;;;;111628;1241;41185;-64
2022/01/13 04:06:38;;;;;;;50.80;21.70;;;;;-9.30;99247.20;;;;111369;1244;41784;-66
2022/01/13 04:09:30;;;;;;;45.40;20.20;;;;;-9.30;99246.80;;;;111346;1243;42089;-64
2022/01/13 04:12:06;;;;;;;40.90;19.00;;;;;-9.30;99251.20;;;;111073;1243;41727;-75
2022/01/13 04:14:59;;;;;;;46.40;21.00;;;;;-9.30;99252.00;;;;111479;1243;41678;-64
2022/01/13 04:17:31;;;;;;;52.70;22.60;;;;;-9.30;99260.20;;;;111178;1244;41134;-70
2022/01/13 04:20:01;;;;;;;56.40;25.50;;;;;-9.30;99266.40;;;;111330;1244;41148;-63
2022/01/13 04:22:31;;;;;;;57.40;23.90;;;;;-9.38;99269.40;;;;111671;1241;41627;-69
2022/01/13 04:25:01;;;;;;;48.20;21.90;;;;;-9.40;99280.00;;;;111222;1242;41157;-75
2022/01/13 04:27:36;;;;;;;47.70;20.60;;;;;-9.40;99279.40;;;;111730;1241;41216;-64
2022/01/13 04:32:46;;;;;;;43.80;19.10;;;;;-9.40;99288.80;;;;111669;1241;42003;-73
2022/01/13 04:35:18;;;;;;;43.10;19.10;;;;;-9.40;99289.80;;;;111700;1243;41145;-73
2022/01/13 04:37:51;;;;;;;42.70;19.10;;;;;-9.40;99289.80;;;;111237;1244;41257;-72
2022/01/13 04:40:24;;;;;;;47.20;20.10;;;;;-9.42;99300.20;;;;111225;1243;41368;-66
2022/01/13 04:42:55;;;;;;;54.30;23.20;;;;;-9.50;99305.80;;;;111690;1244;41142;-70
2022/01/13 04:45:25;;;;;;;;;;;;;-9.50;99318.60;;;;111745;1241;41732;-74
2022/01/13 04:47:56;;;;;;;50.40;22.10;;;;;-9.50;99325.00;;;;111753;1243;41139;-64
2022/01/13 04:50:28;;;;;;;50.60;23.40;;;;;-9.50;99329.40;;;;111638;1243;41145;-72
2022/01/13 04:52:58;;;;;;;54.40;22.60;;;;;-9.54;99331.80;;;;111233;1244;41132;-67
2022/01/13 04:55:32;;;;;;;52.20;21.30;;;;;-9.58;99332.60;;;;111585;1243;41310;-75
2022/01/13 04:58:01;;;;;;;52.10;22.90;;;;;-9.60;99334.60;;;;111169;1245;41811;-75
2022/01/13 05:00:32;;;;;;;47.50;20.90;;;;;-9.60;99334.80;;;;111410;1244;41601;-71
2022/01/13 05:03:02;;;;;;;52.00;21.80;;;;;-9.60;99337.80;;;;111693;1243;41601;-74
2022/01/13 05:05:32;;;;;;;67.90;29.50;;;;;-9.60;99336.00;;;;111400;1243;41977;-75
2022/01/13 05:08:01;;;;;;;71.70;33.00;;;;;-9.60;99331.60;;;;111701;1243;41234;-74
2022/01/13 05:10:32;;;;;;;70.00;32.60;;;;;-9.70;99327.60;;;;111577;1243;41715;-75
2022/01/13 05:13:03;;;;;;;64.40;29.60;;;;;-9.70;99325.80;;;;111384;1243;41130;-75
2022/01/13 05:15:36;;;;;;;61.90;28.60;;;;;-9.72;99328.20;;;;111663;1243;41120;-75
2022/01/13 05:18:41;;;;;;;61.10;27.20;;;;;-9.80;99353.80;;;;111659;1243;42436;-77
2022/01/13 05:21:37;;;;;;;52.50;24.70;;;;;-9.80;99348.60;;;;111394;1243;41636;-69
2022/01/13 05:24:07;;;;;;;49.00;23.30;;;;;-9.80;99358.40;;;;111454;1244;41296;-66
2022/01/13 05:26:37;;;;;;;51.50;23.50;;;;;-9.80;99352.80;;;;111510;1243;41251;-73
2022/01/13 05:29:09;;;;;;;53.20;24.20;;;;;-9.90;99354.40;;;;111663;1243;41136;-75
2022/01/13 05:31:40;;;;;;;53.10;24.00;;;;;-9.90;99355.80;;;;111375;1243;41334;-69
2022/01/13 05:34:09;;;;;;;53.10;22.20;;;;;-9.90;99357.40;;;;111537;1244;41622;-67
2022/01/13 05:36:50;;;;;;;47.50;20.90;;;;;-9.90;99356.00;;;;111638;1243;41235;-69
2022/01/13 05:39:20;;;;;;;48.50;20.40;;;;;-10.00;99355.40;;;;111556;1242;41371;-65
2022/01/13 05:41:50;;;;;;;46.50;20.30;;;;;-10.00;99359.60;;;;111440;1242;41605;-62
2022/01/13 05:44:19;;;;;;;47.40;19.80;;;;;-10.00;99358.40;;;;111614;1242;41245;-73
2022/01/13 05:46:49;;;;;;;37.90;18.60;;;;;-10.00;99369.20;;;;111583;1242;42371;-68
2022/01/13 05:49:18;;;;;;;40.50;19.50;;;;;-10.00;99363.60;;;;111535;1244;42746;-72
2022/01/13 05:51:48;;;;;;;46.00;21.70;;;;;-10.00;99363.40;;;;111786;1243;41575;-72
2022/01/13 05:54:17;;;;;;;52.80;24.00;;;;;-10.00;99374.00;;;;111525;1244;41171;-62
2022/01/13 05:56:46;;;;;;;51.10;22.70;;;;;-10.00;99372.20;;;;111757;1243;41232;-70
2022/01/13 05:59:16;;;;;;;50.40;22.50;;;;;-10.00;99375.80;;;;111706;1242;41141;-68
2022/01/13 06:01:46;;;;;;;45.50;21.50;;;;;-9.98;99371.20;;;;111860;1241;42354;-67
2022/01/13 06:04:17;;;;;;;42.70;19.70;;;;;-9.98;99365.80;;;;111858;1242;41597;-67
2022/01/13 06:06:47;;;;;;;42.50;19.20;;;;;-9.96;99374.80;;;;111552;1243;41353;-66
2022/01/13 06:09:16;;;;;;;43.80;20.00;;;;;-9.90;99375.60;;;;111675;1243;41815;-67
2022/01/13 06:11:55;;;;;;;50.90;22.50;;;;;-9.90;99373.20;;;;111808;1242;41142;-73
2022/01/13 06:14:25;;;;;;;48.10;23.50;;;;;-9.90;99376.80;;;;111750;1243;42199;-69
2022/01/13 06:16:54;;;;;;;53.80;23.60;;;;;-9.90;99386.40;;;;111802;1243;41143;-67
2022/01/13 06:19:23;;;;;;;64.60;28.50;;;;;-9.88;99388.40;;;;111732;1243;41284;-62
2022/01/13 06:21:52;;;;;;;67.40;31.00;;;;;-9.82;99384.40;;;;111819;1241;41606;-64
2022/01/13 06:24:21;;;;;;;75.20;32.80;;;;;-9.80;99375.20;;;;111800;1242;41498;-62
2022/01/13 06:26:50;;;;;;;83.40;34.40;;;;;-9.80;99373.20;;;;111820;1241;41500;-69
2022/01/13 06:29:19;;;;;;;74.30;33.00;;;;;-9.80;99379.00;;;;111794;1241;41247;-65
2022/01/13 06:31:50;;;;;;;69.00;30.90;;;;;-9.80;99375.60;;;;111840;1243;41769;-65
2022/01/13 06:34:19;;;;;;;58.90;28.50;;;;;-9.76;99369.00;;;;111866;1241;41123;-69
2022/01/13 06:36:48;;;;;;;59.30;26.50;;;;;-9.70;99368.80;;;;111761;1241;42360;-63
2022/01/13 06:39:18;;;;;;;65.40;29.70;;;;;-9.70;99375.20;;;;111838;1241;41914;-65
2022/01/13 06:41:47;;;;;;;63.70;30.40;;;;;-9.70;99371.80;;;;111605;1243;41662;-66
2022/01/13 06:44:16;;;;;;;67.00;30.30;;;;;-9.60;99364.60;;;;111786;1241;41144;-71
2022/01/13 06:46:45;;;;;;;80.80;35.20;;;;;-9.50;99361.20;;;;111868;1240;41598;-65
2022/01/13 06:49:14;;;;;;;87.20;37.60;;;;;-9.50;99356.60;;;;111837;1241;41239;-74
2022/01/13 06:51:43;;;;;;;116.80;45.80;;;;;-9.40;99347.00;;;;111720;1241;41144;-69
2022/01/13 06:54:12;;;;;;;119.20;47.20;;;;;-9.30;99345.20;;;;111706;1244;41424;-68
2022/01/13 06:56:42;;;;;;;108.40;43.30;;;;;-9.20;99349.00;;;;111713;1241;41574;-73
2022/01/13 06:59:12;;;;;;;97.80;38.00;;;;;-9.10;99339.20;;;;111826;1241;41233;-74
2022/01/13 07:01:43;;;;;;;71.80;31.40;;;;;-8.90;99347.20;;;;111846;1241;41120;-71
2022/01/13 07:04:13;;;;;;;63.00;28.40;;;;;-8.78;99329.80;;;;111763;1241;41831;-74
2022/01/13 07:06:44;;;;;;;59.20;26.30;;;;;-8.60;99329.20;;;;111649;1241;41141;-77
2022/01/13 07:09:16;;;;;;;54.70;24.90;;;;;-8.38;99334.60;;;;111730;1241;41143;-70
2022/01/13 07:11:46;;;;;;;54.30;23.30;;;;;-8.12;99323.00;;;;111808;1241;42109;-68
2022/01/13 07:14:15;;;;;;;48.80;21.60;;;;;-7.90;99311.00;;;;111503;1243;41195;-72
2022/01/13 07:16:45;;;;;;;44.30;20.60;;;;;-7.60;99321.60;;;;111524;1244;41143;-74
2022/01/13 07:19:17;;;;;;;46.20;20.90;;;;;-7.34;99320.40;;;;111478;1244;41134;-75
2022/01/13 07:21:47;;;;;;;52.60;23.70;;;;;-7.06;99317.80;;;;111755;1241;41152;-71
2022/01/13 07:24:17;;;;;;;49.70;24.30;;;;;-6.76;99309.40;;;;111776;1241;41167;-66
2022/01/13 07:26:45;;;;;;;58.50;28.20;;;;;-6.40;99307.60;;;;111498;1241;41222;-64
2022/01/13 07:29:15;;;;;;;66.20;29.00;;;;;-6.12;99300.40;;;;111799;1241;41692;-68
2022/01/13 07:31:46;;;;;;;64.30;28.20;;;;;-5.84;99308.00;;;;111844;1242;42039;-67
2022/01/13 07:34:16;;;;;;;71.00;32.20;;;;;-5.60;99324.80;;;;111811;1241;41171;-68
2022/01/13 07:36:45;;;;;;;62.80;28.90;;;;;-5.30;99345.20;;;;111803;1241;42088;-60
2022/01/13 07:39:15;;;;;;;66.70;31.90;;;;;-5.00;99349.80;;;;111818;1241;41952;-65
2022/01/13 07:41:44;;;;;;;65.90;29.90;;;;;-4.64;99365.00;;;;111732;1242;42201;-71
2022/01/13 07:44:17;;;;;;;59.80;26.80;;;;;-4.08;99362.00;;;;111690;1243;42290;-67
2022/01/13 07:46:47;;;;;;;45.20;22.30;;;;;-3.42;99334.80;;;;111847;1241;41716;-75
2022/01/13 07:49:16;;;;;;;46.50;23.90;;;;;-2.80;99336.60;;;;111664;1241;41749;-64
2022/01/13 07:51:46;;;;;;;56.10;26.40;;;;;-2.10;99339.80;;;;111704;1241;41948;-69
2022/01/13 07:54:15;;;;;;;64.60;28.20;;;;;-1.18;99312.40;;;;111508;1244;41250;-67
2022/01/13 07:56:44;;;;;;;71.60;30.60;;;;;-0.26;99297.00;;;;111757;1242;41255;-63
2022/01/13 07:59:14;;;;;;;56.80;28.50;;;;;0.52;99312.20;;;;111509;1244;41152;-73
2022/01/13 08:01:43;;;;;;;63.50;28.90;;;;;1.00;99298.40;;;;111677;1243;41650;-69
2022/01/13 08:04:12;;;;;;;55.20;27.60;;;;;1.60;99278.40;;;;111478;1243;41245;-72
2022/01/13 08:06:41;;;;;;;48.70;24.90;;;;;2.32;99276.20;;;;111724;1241;41372;-63
2022/01/13 08:09:11;;;;;;;50.50;25.20;;;;;3.00;99282.20;;;;111772;1242;41127;-71
2022/01/13 08:11:40;;;;;;;53.30;25.70;;;;;3.70;99279.20;;;;111709;1242;41142;-64
2022/01/13 08:14:09;;;;;;;53.40;24.10;;;;;4.10;99284.00;;;;111743;1242;42768;-63
2022/01/13 08:16:44;;;;;;;43.30;21.50;;;;;4.28;99297.20;;;;111761;1242;41648;-65
2022/01/13 08:22:01;;;;;;;46.30;20.10;;;;;2.60;99299.40;;;;111717;1241;41139;-64
2022/01/13 08:24:30;;;;;;;39.10;18.40;;;;;1.74;99283.40;;;;111518;1244;41383;-67
2022/01/13 08:26:59;;;;;;;35.40;17.70;;;;;0.94;99287.40;;;;111594;1244;41246;-68
2022/01/13 08:29:28;;;;;;;42.20;18.30;;;;;0.28;99288.00;;;;111741;1243;41137;-70
2022/01/13 08:31:57;;;;;;;32.40;15.60;;;;;-0.34;99278.40;;;;111672;1243;41493;-71
2022/01/13 08:34:27;;;;;;;31.80;15.50;;;;;-0.88;99285.80;;;;111743;1241;41028;-74
2022/01/13 08:36:56;;;;;;;35.80;15.40;;;;;-1.30;99293.60;;;;111751;1243;41335;-62
2022/01/13 08:39:25;;;;;;;31.10;15.30;;;;;-1.60;99296.00;;;;111757;1241;41238;-63
2022/01/13 08:41:54;;;;;;;34.30;16.30;;;;;-1.82;99311.00;;;;111754;1243;41146;-61
2022/01/13 08:44:27;;;;;;;34.50;15.10;;;;;-2.00;99326.60;;;;111732;1243;41146;-65
2022/01/13 08:46:56;;;;;;;36.90;16.80;;;;;-2.16;99328.60;;;;111718;1241;41607;-62
2022/01/13 08:49:25;;;;;;;33.10;15.40;;;;;-2.30;99331.20;;;;111681;1242;41599;-67
2022/01/13 08:51:55;;;;;;;31.20;15.50;;;;;-2.30;99347.60;;;;111733;1244;41502;-70
2022/01/13 08:54:26;;;;;;;36.00;17.90;;;;;-2.30;99339.80;;;;111717;1243;41183;-67
2022/01/13 08:56:57;;;;;;;35.50;16.80;;;;;-2.30;99338.40;;;;111793;1241;41607;-65
2022/01/13 08:59:27;;;;;;;33.50;15.50;;;;;-2.30;99338.80;;;;111744;1242;41132;-68
2022/01/13 09:01:56;;;;;;;37.90;16.30;;;;;-2.20;99347.40;;;;111201;1241;739885;-67
2022/01/13 09:04:26;;;;;;;36.70;17.40;;;;;-2.10;99352.00;;;;111673;1243;41401;-75
2022/01/13 09:06:56;;;;;;;34.10;16.70;;;;;-2.10;99345.40;;;;111633;1241;41143;-70
2022/01/13 09:09:25;;;;;;;35.40;16.60;;;;;-2.10;99342.00;;;;111672;1243;41243;-74
2022/01/13 09:11:54;;;;;;;35.20;16.40;;;;;-2.00;99337.60;;;;111713;1241;41715;-71
2022/01/13 09:14:27;;;;;;;42.70;19.80;;;;;-1.90;99336.40;;;;111717;1243;41133;-74
2022/01/13 09:16:57;;;;;;;38.40;17.70;;;;;-2.20;99351.40;;;;111745;1242;41251;-70
2022/01/13 09:19:27;;;;;;;37.10;18.70;;;;;-2.30;99355.00;;;;111682;1242;42547;-72
2022/01/13 09:21:57;;;;;;;37.90;16.20;;;;;-2.36;99370.00;;;;111471;1242;41151;-66
2022/01/13 09:24:26;;;;;;;37.30;17.40;;;;;-2.30;99367.80;;;;111754;1243;41254;-68
2022/01/13 09:26:56;;;;;;;32.60;15.80;;;;;-2.20;99358.80;;;;111434;1244;41485;-76
2022/01/13 09:29:25;;;;;;;44.50;18.90;;;;;-2.20;99356.40;;;;111752;1243;41143;-75
2022/01/13 09:31:55;;;;;;;32.50;17.00;;;;;-2.20;99347.00;;;;111784;1243;41471;-72
2022/01/13 09:34:24;;;;;;;39.20;19.00;;;;;-2.20;99334.80;;;;111754;1242;41170;-67
2022/01/13 09:36:53;;;;;;;38.00;18.20;;;;;-2.18;99334.20;;;;111763;1243;41646;-77
2022/01/13 09:39:22;;;;;;;37.20;17.50;;;;;-2.20;99337.00;;;;111302;1244;41147;-71
2022/01/13 09:41:52;;;;;;;41.70;19.00;;;;;-2.22;99342.20;;;;111629;1244;41998;-61
2022/01/13 09:44:21;;;;;;;37.40;18.20;;;;;-2.30;99330.20;;;;111462;1244;41597;-70
2022/01/13 09:46:50;;;;;;;43.30;19.10;;;;;-2.40;99320.60;;;;111731;1244;42086;-80
2022/01/13 09:49:20;;;;;;;41.50;21.60;;;;;-2.50;99302.80;;;;111655;1244;41128;-76
2022/01/13 09:51:49;;;;;;;44.20;18.30;;;;;-2.70;99307.60;;;;111790;1244;41931;-75
2022/01/13 09:54:20;;;;;;;44.20;21.50;;;;;-2.50;99304.40;;;;111695;1243;42303;-68
2022/01/13 09:56:50;;;;;;;48.20;22.90;;;;;-2.34;99309.20;;;;111735;1243;40776;-72
2022/01/13 09:59:19;;;;;;;44.60;21.90;;;;;-2.20;99312.20;;;;111773;1242;41132;-71
2022/01/13 10:01:48;;;;;;;39.60;19.30;;;;;-2.10;99315.20;;;;111515;1243;41898;-64
2022/01/13 10:04:18;;;;;;;47.80;22.30;;;;;-1.90;99301.00;;;;111792;1243;42065;-72
2022/01/13 10:06:48;;;;;;;48.60;23.30;;;;;-1.34;99272.20;;;;111723;1243;41613;-63
2022/01/13 10:09:17;;;;;;;39.10;20.30;;;;;-0.08;99249.60;;;;111750;1243;41136;-68
2022/01/13 10:11:58;;;;;;;50.20;22.60;;;;;1.48;99245.40;;;;111703;1242;41926;-75
2022/01/13 10:17:06;;;;;;;38.20;20.10;;;;;3.62;99213.20;;;;111711;1244;41137;-70
2022/01/13 10:19:46;;;;;;;36.00;18.30;;;;;4.58;99212.00;;;;111769;1244;41151;-72
2022/01/13 10:22:16;;;;;;;34.00;17.10;;;;;5.98;99216.00;;;;111736;1241;41127;-64
2022/01/13 10:24:56;;;;;;;35.60;17.90;;;;;7.48;99209.80;;;;111765;1242;41488;-73
2022/01/13 10:27:31;;;;;;;33.10;17.20;;;;;8.62;99197.80;;;;111752;1244;41130;-69
2022/01/13 10:30:07;;;;;;;33.40;16.60;;;;;8.80;99198.60;;;;111773;1242;41241;-67
2022/01/13 10:32:38;;;;;;;38.70;18.50;;;;;9.54;99187.00;;;;111737;1243;42534;-71
2022/01/13 10:35:20;;;;;;;34.70;17.60;;;;;10.06;99189.80;;;;111398;1244;41151;-62
2022/01/13 10:37:58;;;;;;;32.60;15.50;;;;;10.44;99192.80;;;;111762;1244;41308;-65
2022/01/13 10:40:34;;;;;;;29.10;14.80;;;;;10.76;99199.40;;;;111660;1244;41226;-67
2022/01/13 10:45:37;;;;;;;30.10;16.10;;;;;11.20;99197.60;;;;111659;1244;41648;-72
2022/01/13 10:48:06;;;;;;;31.70;15.10;;;;;11.04;99190.00;;;;111733;1243;41992;-72
2022/01/13 10:50:41;;;;;;;23.80;13.30;;;;;11.56;99190.80;;;;111798;1242;41123;-63
2022/01/13 10:53:15;;;;;;;21.90;11.10;;;;;12.00;99191.80;;;;111753;1242;41375;-67
2022/01/13 10:55:50;;;;;;;24.40;11.60;;;;;11.70;99191.80;;;;111695;1241;41154;-64
2022/01/13 10:58:25;;;;;;;22.10;10.50;;;;;11.70;99202.00;;;;111751;1243;41248;-62
2022/01/13 11:00:55;;;;;;;22.60;11.50;;;;;11.70;99211.20;;;;111658;1244;41136;-71
2022/01/13 11:03:27;;;;;;;24.00;12.70;;;;;11.60;99220.60;;;;111560;1244;41143;-68
2022/01/13 11:06:01;;;;;;;24.60;12.60;;;;;11.60;99220.00;;;;111785;1243;41712;-69
2022/01/13 11:08:40;;;;;;;23.80;12.30;;;;;11.70;99208.20;;;;111844;1241;41133;-66
2022/01/13 11:11:20;;;;;;;26.70;11.50;;;;;11.80;99197.40;;;;111705;1243;41904;-65
2022/01/13 11:13:54;;;;;;;27.60;12.50;;;;;12.10;99204.40;;;;111734;1241;41147;-71
2022/01/13 11:16:24;;;;;;;23.80;12.00;;;;;12.10;99201.60;;;;111798;1243;41159;-67
2022/01/13 11:18:54;;;;;;;24.40;13.60;;;;;11.62;99201.60;;;;111771;1241;41143;-64
2022/01/13 11:21:24;;;;;;;24.70;12.90;;;;;10.74;99214.80;;;;111804;1241;41149;-69
2022/01/13 11:23:53;;;;;;;26.50;12.80;;;;;9.62;99219.60;;;;111779;1241;41261;-72
2022/01/13 11:26:27;;;;;;;21.40;11.20;;;;;8.34;99228.80;;;;111821;1241;41357;-77
2022/01/13 11:28:58;;;;;;;27.20;11.90;;;;;7.54;99223.80;;;;111798;1241;41171;-71
2022/01/13 11:31:26;;;;;;;24.20;12.30;;;;;6.90;99234.40;;;;111468;1244;42554;-75
2022/01/13 11:33:57;;;;;;;27.20;13.10;;;;;6.40;99238.60;;;;111511;1244;41128;-70
2022/01/13 11:36:30;;;;;;;33.50;14.10;;;;;5.90;99241.80;;;;111435;1244;41591;-76
2022/01/13 11:39:05;;;;;;;34.90;16.20;;;;;5.20;99246.00;;;;111489;1244;42011;-63
2022/01/13 11:42:05;;;;;;;25.80;13.00;;;;;4.26;99243.40;;;;111443;1244;41672;-77
2022/01/13 11:44:34;;;;;;;26.10;12.60;;;;;3.48;99231.60;;;;111727;1241;41141;-74
2022/01/13 11:47:16;;;;;;;27.20;12.70;;;;;3.14;99222.80;;;;111525;1244;41128;-77
2022/01/13 11:50:05;;;;;;;25.60;12.50;;;;;2.86;99218.40;;;;111708;1244;41133;-77
2022/01/13 11:52:44;;;;;;;28.40;13.40;;;;;2.70;99212.80;;;;111764;1243;41146;-74
2022/01/13 11:55:32;;;;;;;28.60;13.70;;;;;2.70;99210.40;;;;111603;1244;41244;-70
2022/01/13 11:58:28;;;;;;;25.70;12.10;;;;;2.50;99211.40;;;;111492;1244;41173;-81
2022/01/13 12:01:17;;;;;;;25.40;11.20;;;;;2.40;99210.60;;;;111695;1244;41903;-79
2022/01/13 12:03:52;;;;;;;24.50;11.70;;;;;2.60;99220.40;;;;111708;1243;41122;-74
2022/01/13 12:06:44;;;;;;;25.80;11.30;;;;;2.90;99219.40;;;;111650;1244;41328;-70
2022/01/13 12:09:22;;;;;;;20.80;10.00;;;;;2.94;99205.60;;;;111723;1241;42109;-63
2022/01/13 12:11:56;;;;;;;23.70;10.70;;;;;2.90;99206.20;;;;111724;1243;41589;-65
2022/01/13 12:14:27;;;;;;;23.90;12.60;;;;;2.50;99199.40;;;;111406;1244;41300;-65
2022/01/13 12:17:06;;;;;;;29.30;12.90;;;;;2.18;99199.00;;;;111706;1242;41238;-67
2022/01/13 12:19:42;;;;;;;23.20;10.40;;;;;1.24;99221.40;;;;111688;1244;41134;-65
2022/01/13 12:22:40;;;;;;;24.50;12.00;;;;;1.00;99224.80;;;;111462;1244;41140;-76
2022/01/13 12:25:12;;;;;;;27.20;11.80;;;;;0.78;99227.20;;;;111310;1244;41248;-75
2022/01/13 12:27:45;;;;;;;21.50;9.90;;;;;0.60;99212.80;;;;111715;1244;41308;-67
2022/01/13 12:30:30;;;;;;;25.00;13.20;;;;;0.50;99211.20;;;;111461;1244;41248;-68
2022/01/13 12:33:03;;;;;;;25.30;11.30;;;;;0.20;99206.80;;;;111788;1242;41748;-62
2022/01/13 12:35:41;;;;;;;29.00;12.60;;;;;0.00;99211.80;;;;111380;1243;41141;-68
2022/01/13 12:38:15;;;;;;;27.10;11.60;;;;;-0.12;99216.00;;;;111423;1244;41707;-68
2022/01/13 12:40:56;;;;;;;27.20;11.40;;;;;-0.20;99212.80;;;;111724;1243;41638;-68